sensor_id;sensor_type;location;lat;lon;timestamp;pressure;altitude;pressure_sealevel;temperature;humidity
70690;BME280;58267;51.156;17.044;2023-03-22T00:00:10;100106.96;;;13.55;40.06
70690;BME280;58267;51.156;17.044;2023-03-22T00:02:34;100102.60;;;13.45;40.36
70690;BME280;58267;51.156;17.044;2023-03-22T00:05:00;100099.55;;;13.49;40.47
70690;BME280;58267;51.156;17.044;2023-03-22T00:07:25;100095.40;;;13.48;40.45
70690;BME280;58267;51.156;17.044;2023-03-22T00:09:50;100092.62;;;14.03;40.13
70690;BME280;58267;51.156;17.044;2023-03-22T00:12:16;100090.16;;;13.54;40.51
70690;BME280;58267;51.156;17.044;2023-03-22T00:14:43;100084.13;;;13.78;40.63
70690;BME280;58267;51.156;17.044;2023-03-22T00:17:06;100076.58;;;13.53;40.62
70690;BME280;58267;51.156;17.044;2023-03-22T00:19:32;100072.22;;;13.52;40.66
70690;BME280;58267;51.156;17.044;2023-03-22T00:21:58;100067.60;;;13.73;40.75
70690;BME280;58267;51.156;17.044;2023-03-22T00:24:23;100065.61;;;13.60;40.94
70690;BME280;58267;51.156;17.044;2023-03-22T00:26:48;100061.42;;;13.12;41.36
70690;BME280;58267;51.156;17.044;2023-03-22T00:29:14;100061.09;;;13.51;41.17
70690;BME280;58267;51.156;17.044;2023-03-22T00:31:39;100059.59;;;13.27;41.24
70690;BME280;58267;51.156;17.044;2023-03-22T00:34:04;100062.33;;;13.15;41.44
70690;BME280;58267;51.156;17.044;2023-03-22T00:36:30;100058.65;;;13.20;41.33
70690;BME280;58267;51.156;17.044;2023-03-22T00:38:55;100056.37;;;13.37;41.49
70690;BME280;58267;51.156;17.044;2023-03-22T00:41:22;100054.91;;;13.38;41.47
70690;BME280;58267;51.156;17.044;2023-03-22T00:43:47;100050.07;;;13.32;41.67
70690;BME280;58267;51.156;17.044;2023-03-22T00:46:13;100046.59;;;13.35;41.43
70690;BME280;58267;51.156;17.044;2023-03-22T00:48:38;100044.33;;;13.40;41.49
70690;BME280;58267;51.156;17.044;2023-03-22T00:51:03;100042.06;;;13.54;41.17
70690;BME280;58267;51.156;17.044;2023-03-22T00:53:28;100040.64;;;13.35;41.17
70690;BME280;58267;51.156;17.044;2023-03-22T00:55:53;100036.61;;;13.23;41.32
70690;BME280;58267;51.156;17.044;2023-03-22T00:58:19;100033.92;;;13.66;41.01
70690;BME280;58267;51.156;17.044;2023-03-22T01:00:45;100031.64;;;13.25;41.22
70690;BME280;58267;51.156;17.044;2023-03-22T01:03:10;100029.03;;;13.46;41.33
70690;BME280;58267;51.156;17.044;2023-03-22T01:05:36;100029.82;;;13.49;41.26
70690;BME280;58267;51.156;17.044;2023-03-22T01:08:02;100030.54;;;13.49;41.26
70690;BME280;58267;51.156;17.044;2023-03-22T01:10:26;100032.24;;;13.57;41.17
70690;BME280;58267;51.156;17.044;2023-03-22T01:12:52;100028.51;;;13.66;41.05
70690;BME280;58267;51.156;17.044;2023-03-22T01:15:17;100027.15;;;13.46;40.95
70690;BME280;58267;51.156;17.044;2023-03-22T01:17:44;100027.07;;;13.70;40.94
70690;BME280;58267;51.156;17.044;2023-03-22T01:20:11;100024.26;;;13.41;41.42
70690;BME280;58267;51.156;17.044;2023-03-22T01:22:35;100018.96;;;13.48;41.35
70690;BME280;58267;51.156;17.044;2023-03-22T01:25:01;100020.04;;;13.12;41.49
70690;BME280;58267;51.156;17.044;2023-03-22T01:27:26;100017.33;;;13.06;41.58
70690;BME280;58267;51.156;17.044;2023-03-22T01:29:52;100011.47;;;13.46;41.37
70690;BME280;58267;51.156;17.044;2023-03-22T01:32:17;100010.43;;;13.59;41.25
70690;BME280;58267;51.156;17.044;2023-03-22T01:34:43;100006.86;;;13.19;41.35
70690;BME280;58267;51.156;17.044;2023-03-22T01:37:08;100005.43;;;13.44;41.48
70690;BME280;58267;51.156;17.044;2023-03-22T01:39:34;100007.78;;;13.11;41.55
70690;BME280;58267;51.156;17.044;2023-03-22T01:42:01;100007.27;;;13.28;41.65
70690;BME280;58267;51.156;17.044;2023-03-22T01:44:29;100004.57;;;13.22;41.78
70690;BME280;58267;51.156;17.044;2023-03-22T01:46:51;100001.34;;;13.41;41.55
70690;BME280;58267;51.156;17.044;2023-03-22T01:49:20;100000.62;;;13.48;41.76
70690;BME280;58267;51.156;17.044;2023-03-22T01:51:42;99994.91;;;13.43;41.54
70690;BME280;58267;51.156;17.044;2023-03-22T01:54:09;99993.24;;;13.45;41.51
70690;BME280;58267;51.156;17.044;2023-03-22T01:56:36;99992.22;;;13.67;41.22
70690;BME280;58267;51.156;17.044;2023-03-22T01:58:59;99992.47;;;13.49;41.58
70690;BME280;58267;51.156;17.044;2023-03-22T02:01:24;99988.52;;;13.16;41.77
70690;BME280;58267;51.156;17.044;2023-03-22T02:03:53;99987.00;;;13.18;41.76
70690;BME280;58267;51.156;17.044;2023-03-22T02:06:15;99985.75;;;13.55;41.77
70690;BME280;58267;51.156;17.044;2023-03-22T02:08:40;99988.55;;;12.91;41.93
70690;BME280;58267;51.156;17.044;2023-03-22T02:11:09;99985.50;;;13.06;42.17
70690;BME280;58267;51.156;17.044;2023-03-22T02:13:40;99987.82;;;13.30;42.12
70690;BME280;58267;51.156;17.044;2023-03-22T02:16:05;99989.49;;;13.34;42.31
70690;BME280;58267;51.156;17.044;2023-03-22T02:18:37;99989.97;;;13.37;42.12
70690;BME280;58267;51.156;17.044;2023-03-22T02:21:02;99987.24;;;13.42;42.10
70690;BME280;58267;51.156;17.044;2023-03-22T02:28:16;99985.39;;;13.09;42.93
70690;BME280;58267;51.156;17.044;2023-03-22T02:33:12;99983.27;;;13.00;43.16
70690;BME280;58267;51.156;17.044;2023-03-22T02:35:36;99984.45;;;12.83;43.64
70690;BME280;58267;51.156;17.044;2023-03-22T02:40:23;99984.34;;;13.11;43.44
70690;BME280;58267;51.156;17.044;2023-03-22T02:42:52;99981.84;;;12.84;43.72
70690;BME280;58267;51.156;17.044;2023-03-22T02:45:14;99981.67;;;12.89;43.63
70690;BME280;58267;51.156;17.044;2023-03-22T02:47:38;99978.95;;;12.89;43.74
70690;BME280;58267;51.156;17.044;2023-03-22T02:50:02;99977.01;;;12.89;43.55
70690;BME280;58267;51.156;17.044;2023-03-22T02:52:28;99973.44;;;12.81;43.65
70690;BME280;58267;51.156;17.044;2023-03-22T02:54:54;99971.36;;;12.92;43.20
70690;BME280;58267;51.156;17.044;2023-03-22T02:57:19;99971.83;;;12.85;43.56
70690;BME280;58267;51.156;17.044;2023-03-22T02:59:41;99972.21;;;13.06;43.10
70690;BME280;58267;51.156;17.044;2023-03-22T03:02:08;99974.17;;;12.97;43.28
70690;BME280;58267;51.156;17.044;2023-03-22T03:04:34;99977.46;;;13.25;42.73
70690;BME280;58267;51.156;17.044;2023-03-22T03:06:59;99974.40;;;13.12;43.14
70690;BME280;58267;51.156;17.044;2023-03-22T03:09:23;99972.63;;;13.00;42.83
70690;BME280;58267;51.156;17.044;2023-03-22T03:11:50;99975.84;;;13.10;43.04
70690;BME280;58267;51.156;17.044;2023-03-22T03:14:19;99975.15;;;12.75;43.14
70690;BME280;58267;51.156;17.044;2023-03-22T03:16:39;99979.43;;;13.16;42.93
70690;BME280;58267;51.156;17.044;2023-03-22T03:19:09;99987.66;;;13.14;42.87
70690;BME280;58267;51.156;17.044;2023-03-22T03:21:34;99992.23;;;12.99;43.10
70690;BME280;58267;51.156;17.044;2023-03-22T03:24:04;99995.80;;;13.03;43.04
70690;BME280;58267;51.156;17.044;2023-03-22T03:26:28;99997.10;;;13.06;43.04
70690;BME280;58267;51.156;17.044;2023-03-22T03:28:50;99999.12;;;13.08;42.87
70690;BME280;58267;51.156;17.044;2023-03-22T03:31:21;100000.96;;;13.08;43.03
70690;BME280;58267;51.156;17.044;2023-03-22T03:33:43;99999.75;;;13.13;43.01
70690;BME280;58267;51.156;17.044;2023-03-22T03:36:08;100003.67;;;13.18;42.87
70690;BME280;58267;51.156;17.044;2023-03-22T03:38:32;100004.06;;;13.19;42.82
70690;BME280;58267;51.156;17.044;2023-03-22T03:40:58;100006.14;;;13.14;42.90
70690;BME280;58267;51.156;17.044;2023-03-22T03:43:21;100010.04;;;13.07;42.95
70690;BME280;58267;51.156;17.044;2023-03-22T03:45:46;100011.19;;;12.81;43.04
70690;BME280;58267;51.156;17.044;2023-03-22T03:48:16;100013.27;;;13.15;42.97
70690;BME280;58267;51.156;17.044;2023-03-22T03:50:37;100013.51;;;13.26;42.92
70690;BME280;58267;51.156;17.044;2023-03-22T03:53:03;100016.02;;;13.10;43.28
70690;BME280;58267;51.156;17.044;2023-03-22T03:55:28;100016.62;;;12.95;43.60
70690;BME280;58267;51.156;17.044;2023-03-22T03:57:53;100019.55;;;13.25;43.37
70690;BME280;58267;51.156;17.044;2023-03-22T04:00:19;100021.21;;;12.84;43.99
70690;BME280;58267;51.156;17.044;2023-03-22T04:02:44;100022.21;;;12.97;43.84
70690;BME280;58267;51.156;17.044;2023-03-22T04:05:11;100026.58;;;12.79;44.07
70690;BME280;58267;51.156;17.044;2023-03-22T04:07:35;100024.12;;;12.90;43.84
70690;BME280;58267;51.156;17.044;2023-03-22T04:10:03;100024.17;;;12.85;44.12
70690;BME280;58267;51.156;17.044;2023-03-22T04:12:27;100018.40;;;12.79;44.38
70690;BME280;58267;51.156;17.044;2023-03-22T04:14:53;100014.19;;;12.98;44.08
70690;BME280;58267;51.156;17.044;2023-03-22T04:17:19;100010.28;;;12.84;44.38
70690;BME280;58267;51.156;17.044;2023-03-22T04:19:45;100005.92;;;13.00;44.61
70690;BME280;58267;51.156;17.044;2023-03-22T04:22:11;100001.48;;;12.43;44.59
70690;BME280;58267;51.156;17.044;2023-03-22T04:24:36;99999.99;;;12.72;44.59
70690;BME280;58267;51.156;17.044;2023-03-22T04:27:01;99998.73;;;12.67;44.52
70690;BME280;58267;51.156;17.044;2023-03-22T04:29:26;100000.15;;;12.59;44.71
70690;BME280;58267;51.156;17.044;2023-03-22T04:31:52;100000.81;;;12.66;44.56
70690;BME280;58267;51.156;17.044;2023-03-22T04:34:18;100002.13;;;12.80;44.40
70690;BME280;58267;51.156;17.044;2023-03-22T04:36:43;99999.85;;;12.73;44.30
70690;BME280;58267;51.156;17.044;2023-03-22T04:39:11;99995.76;;;12.76;44.18
70690;BME280;58267;51.156;17.044;2023-03-22T04:41:34;99994.37;;;12.75;44.08
70690;BME280;58267;51.156;17.044;2023-03-22T04:44:00;99990.76;;;12.78;44.23
70690;BME280;58267;51.156;17.044;2023-03-22T04:46:25;99986.97;;;12.46;44.33
70690;BME280;58267;51.156;17.044;2023-03-22T04:48:51;99982.59;;;12.55;44.54
70690;BME280;58267;51.156;17.044;2023-03-22T04:51:16;99978.56;;;12.46;44.65
70690;BME280;58267;51.156;17.044;2023-03-22T04:53:42;99976.62;;;12.44;44.80
70690;BME280;58267;51.156;17.044;2023-03-22T04:56:10;99972.38;;;12.69;44.88
70690;BME280;58267;51.156;17.044;2023-03-22T04:58:35;99968.88;;;12.53;44.57
70690;BME280;58267;51.156;17.044;2023-03-22T05:00:58;99965.73;;;12.47;44.72
70690;BME280;58267;51.156;17.044;2023-03-22T05:03:24;99967.23;;;12.26;44.54
70690;BME280;58267;51.156;17.044;2023-03-22T05:05:50;99969.65;;;12.67;44.59
70690;BME280;58267;51.156;17.044;2023-03-22T05:08:15;99971.90;;;12.64;44.62
70690;BME280;58267;51.156;17.044;2023-03-22T05:10:40;99973.65;;;12.77;44.57
70690;BME280;58267;51.156;17.044;2023-03-22T05:13:06;99975.61;;;12.48;44.61
70690;BME280;58267;51.156;17.044;2023-03-22T05:15:31;99975.72;;;12.71;44.61
70690;BME280;58267;51.156;17.044;2023-03-22T05:17:57;99978.28;;;12.56;44.52
70690;BME280;58267;51.156;17.044;2023-03-22T05:20:22;99971.69;;;12.19;44.82
70690;BME280;58267;51.156;17.044;2023-03-22T05:22:48;99967.83;;;12.30;45.01
70690;BME280;58267;51.156;17.044;2023-03-22T05:25:14;99974.82;;;12.59;44.87
70690;BME280;58267;51.156;17.044;2023-03-22T05:27:39;99978.96;;;12.60;44.84
70690;BME280;58267;51.156;17.044;2023-03-22T05:30:07;99979.35;;;12.35;44.88
70690;BME280;58267;51.156;17.044;2023-03-22T05:32:30;99982.10;;;12.03;45.02
70690;BME280;58267;51.156;17.044;2023-03-22T05:34:56;99983.88;;;12.51;45.09
70690;BME280;58267;51.156;17.044;2023-03-22T05:37:22;99985.20;;;12.42;44.81
70690;BME280;58267;51.156;17.044;2023-03-22T05:39:47;99986.12;;;12.48;44.75
70690;BME280;58267;51.156;17.044;2023-03-22T05:42:12;99989.69;;;12.59;44.99
70690;BME280;58267;51.156;17.044;2023-03-22T05:44:38;99987.79;;;12.62;45.10
70690;BME280;58267;51.156;17.044;2023-03-22T05:47:04;99984.65;;;12.74;44.89
70690;BME280;58267;51.156;17.044;2023-03-22T05:49:29;99986.00;;;12.88;44.84
70690;BME280;58267;51.156;17.044;2023-03-22T05:51:54;99987.90;;;12.92;44.77
70690;BME280;58267;51.156;17.044;2023-03-22T05:54:20;99983.66;;;12.26;45.31
70690;BME280;58267;51.156;17.044;2023-03-22T05:56:45;99980.01;;;12.71;45.02
70690;BME280;58267;51.156;17.044;2023-03-22T05:59:10;99979.31;;;12.87;44.92
70690;BME280;58267;51.156;17.044;2023-03-22T06:01:35;99975.59;;;12.61;45.14
70690;BME280;58267;51.156;17.044;2023-03-22T06:04:01;99976.77;;;12.85;45.13
70690;BME280;58267;51.156;17.044;2023-03-22T06:06:27;99975.80;;;12.94;45.03
70690;BME280;58267;51.156;17.044;2023-03-22T06:08:52;99976.76;;;12.84;44.95
70690;BME280;58267;51.156;17.044;2023-03-22T06:11:18;99975.31;;;12.79;44.82
70690;BME280;58267;51.156;17.044;2023-03-22T06:13:43;99974.07;;;12.94;44.63
70690;BME280;58267;51.156;17.044;2023-03-22T06:16:09;99979.85;;;13.14;44.51
70690;BME280;58267;51.156;17.044;2023-03-22T06:18:34;99979.57;;;13.17;44.32
70690;BME280;58267;51.156;17.044;2023-03-22T06:20:59;99983.71;;;13.20;44.31
70690;BME280;58267;51.156;17.044;2023-03-22T06:23:25;99986.80;;;13.40;44.04
70690;BME280;58267;51.156;17.044;2023-03-22T06:25:50;99982.21;;;13.50;43.97
70690;BME280;58267;51.156;17.044;2023-03-22T06:28:16;99979.42;;;13.82;43.66
70690;BME280;58267;51.156;17.044;2023-03-22T06:30:41;99979.05;;;13.74;43.77
70690;BME280;58267;51.156;17.044;2023-03-22T06:33:07;99977.31;;;13.56;43.64
70690;BME280;58267;51.156;17.044;2023-03-22T06:35:32;99976.71;;;13.85;43.61
70690;BME280;58267;51.156;17.044;2023-03-22T06:37:57;99975.12;;;13.90;43.50
70690;BME280;58267;51.156;17.044;2023-03-22T06:40:23;99984.60;;;13.75;43.25
70690;BME280;58267;51.156;17.044;2023-03-22T06:42:49;99986.11;;;14.13;43.12
70690;BME280;58267;51.156;17.044;2023-03-22T06:45:15;99985.32;;;13.89;43.10
70690;BME280;58267;51.156;17.044;2023-03-22T06:47:40;99987.29;;;13.90;42.89
70690;BME280;58267;51.156;17.044;2023-03-22T06:50:06;99992.52;;;14.03;42.85
70690;BME280;58267;51.156;17.044;2023-03-22T06:52:31;99991.14;;;14.09;42.70
70690;BME280;58267;51.156;17.044;2023-03-22T06:54:56;99993.40;;;14.23;42.66
70690;BME280;58267;51.156;17.044;2023-03-22T06:57:22;99997.93;;;14.47;42.87
70690;BME280;58267;51.156;17.044;2023-03-22T06:59:47;99994.11;;;14.44;42.61
70690;BME280;58267;51.156;17.044;2023-03-22T07:02:13;99993.03;;;14.45;42.58
70690;BME280;58267;51.156;17.044;2023-03-22T07:04:39;99994.25;;;14.44;42.47
70690;BME280;58267;51.156;17.044;2023-03-22T07:07:05;99997.82;;;14.69;42.17
70690;BME280;58267;51.156;17.044;2023-03-22T07:09:30;99998.29;;;14.54;42.05
70690;BME280;58267;51.156;17.044;2023-03-22T07:11:56;99995.22;;;14.65;41.81
70690;BME280;58267;51.156;17.044;2023-03-22T07:14:21;99994.28;;;14.93;41.74
70690;BME280;58267;51.156;17.044;2023-03-22T07:16:47;99995.46;;;15.02;41.60
70690;BME280;58267;51.156;17.044;2023-03-22T07:19:13;99997.81;;;15.12;41.48
70690;BME280;58267;51.156;17.044;2023-03-22T07:21:38;100000.69;;;15.14;41.47
70690;BME280;58267;51.156;17.044;2023-03-22T07:24:04;99997.59;;;14.81;41.19
70690;BME280;58267;51.156;17.044;2023-03-22T07:26:29;99993.91;;;15.11;40.98
70690;BME280;58267;51.156;17.044;2023-03-22T07:28:55;99992.66;;;14.92;41.04
70690;BME280;58267;51.156;17.044;2023-03-22T07:31:21;99987.43;;;15.00;40.97
70690;BME280;58267;51.156;17.044;2023-03-22T07:33:46;99984.47;;;15.38;40.78
70690;BME280;58267;51.156;17.044;2023-03-22T07:36:12;99980.21;;;15.26;40.42
70690;BME280;58267;51.156;17.044;2023-03-22T07:38:38;99980.21;;;15.33;40.42
70690;BME280;58267;51.156;17.044;2023-03-22T07:41:04;99976.00;;;15.37;40.32
70690;BME280;58267;51.156;17.044;2023-03-22T07:43:29;99977.44;;;15.43;40.19
70690;BME280;58267;51.156;17.044;2023-03-22T07:45:54;99979.37;;;15.56;40.04
70690;BME280;58267;51.156;17.044;2023-03-22T07:48:20;99980.00;;;15.58;40.11
70690;BME280;58267;51.156;17.044;2023-03-22T07:50:45;99974.92;;;15.72;40.03
70690;BME280;58267;51.156;17.044;2023-03-22T07:53:11;99972.73;;;15.68;39.86
70690;BME280;58267;51.156;17.044;2023-03-22T07:55:36;99974.65;;;16.06;39.66
70690;BME280;58267;51.156;17.044;2023-03-22T07:58:01;99974.36;;;16.25;39.22
70690;BME280;58267;51.156;17.044;2023-03-22T08:00:26;99972.35;;;16.32;39.03
70690;BME280;58267;51.156;17.044;2023-03-22T08:02:51;99973.27;;;16.40;38.99
70690;BME280;58267;51.156;17.044;2023-03-22T08:05:16;99969.25;;;16.15;38.83
70690;BME280;58267;51.156;17.044;2023-03-22T08:07:42;99969.81;;;16.29;38.55
70690;BME280;58267;51.156;17.044;2023-03-22T08:10:08;99967.51;;;16.23;38.25
70690;BME280;58267;51.156;17.044;2023-03-22T08:12:33;99963.97;;;16.36;37.96
70690;BME280;58267;51.156;17.044;2023-03-22T08:14:58;99966.70;;;16.68;37.58
70690;BME280;58267;51.156;17.044;2023-03-22T08:17:24;99967.38;;;16.60;37.96
70690;BME280;58267;51.156;17.044;2023-03-22T08:19:49;99964.35;;;16.66;37.62
70690;BME280;58267;51.156;17.044;2023-03-22T08:22:14;99964.60;;;16.53;37.34
70690;BME280;58267;51.156;17.044;2023-03-22T08:24:40;99965.37;;;16.64;37.23
70690;BME280;58267;51.156;17.044;2023-03-22T08:27:05;99964.04;;;16.67;37.12
70690;BME280;58267;51.156;17.044;2023-03-22T08:29:31;99966.93;;;16.90;36.84
70690;BME280;58267;51.156;17.044;2023-03-22T08:31:56;99964.68;;;16.75;36.87
70690;BME280;58267;51.156;17.044;2023-03-22T08:34:21;99963.38;;;16.75;36.72
70690;BME280;58267;51.156;17.044;2023-03-22T08:36:47;99963.68;;;16.80;36.70
70690;BME280;58267;51.156;17.044;2023-03-22T08:39:13;99965.81;;;16.88;36.38
70690;BME280;58267;51.156;17.044;2023-03-22T08:41:38;99963.20;;;16.59;35.68
70690;BME280;58267;51.156;17.044;2023-03-22T08:44:04;99960.85;;;16.64;35.77
70690;BME280;58267;51.156;17.044;2023-03-22T08:46:29;99960.19;;;16.71;35.91
70690;BME280;58267;51.156;17.044;2023-03-22T08:48:54;99959.21;;;16.77;35.78
70690;BME280;58267;51.156;17.044;2023-03-22T08:51:21;99959.86;;;17.07;35.26
70690;BME280;58267;51.156;17.044;2023-03-22T08:53:46;99958.97;;;16.77;35.01
70690;BME280;58267;51.156;17.044;2023-03-22T08:56:11;99958.81;;;16.88;35.26
70690;BME280;58267;51.156;17.044;2023-03-22T08:58:37;99959.86;;;17.07;34.98
70690;BME280;58267;51.156;17.044;2023-03-22T09:01:03;99960.27;;;17.13;34.86
70690;BME280;58267;51.156;17.044;2023-03-22T09:03:29;99953.95;;;16.38;35.23
70690;BME280;58267;51.156;17.044;2023-03-22T09:05:54;99950.69;;;15.79;36.01
70690;BME280;58267;51.156;17.044;2023-03-22T09:08:19;99946.75;;;16.16;36.43
70690;BME280;58267;51.156;17.044;2023-03-22T09:10:45;99941.55;;;16.18;35.67
70690;BME280;58267;51.156;17.044;2023-03-22T09:13:10;99942.76;;;16.35;35.23
70690;BME280;58267;51.156;17.044;2023-03-22T09:15:35;99945.11;;;15.39;36.50
70690;BME280;58267;51.156;17.044;2023-03-22T09:18:01;99938.81;;;16.48;35.74
70690;BME280;58267;51.156;17.044;2023-03-22T09:20:26;99942.18;;;15.98;36.33
70690;BME280;58267;51.156;17.044;2023-03-22T09:22:51;99936.21;;;15.43;37.73
70690;BME280;58267;51.156;17.044;2023-03-22T09:25:17;99935.50;;;16.34;36.01
70690;BME280;58267;51.156;17.044;2023-03-22T09:27:43;99930.65;;;16.47;34.97
70690;BME280;58267;51.156;17.044;2023-03-22T09:30:09;99930.75;;;16.64;35.76
70690;BME280;58267;51.156;17.044;2023-03-22T09:32:33;99927.86;;;16.51;34.42
70690;BME280;58267;51.156;17.044;2023-03-22T09:34:59;99931.09;;;15.87;35.25
70690;BME280;58267;51.156;17.044;2023-03-22T09:37:25;99934.19;;;16.30;35.41
70690;BME280;58267;51.156;17.044;2023-03-22T09:39:50;99934.07;;;15.73;35.76
70690;BME280;58267;51.156;17.044;2023-03-22T09:42:27;99931.67;;;15.42;35.92
70690;BME280;58267;51.156;17.044;2023-03-22T09:44:43;99932.49;;;15.48;35.36
70690;BME280;58267;51.156;17.044;2023-03-22T09:47:12;99931.69;;;15.82;35.10
70690;BME280;58267;51.156;17.044;2023-03-22T09:49:35;99928.06;;;15.94;34.54
70690;BME280;58267;51.156;17.044;2023-03-22T09:51:58;99924.24;;;15.86;34.16
70690;BME280;58267;51.156;17.044;2023-03-22T09:54:31;99919.84;;;16.68;33.45
70690;BME280;58267;51.156;17.044;2023-03-22T09:56:52;99920.06;;;16.83;32.38
70690;BME280;58267;51.156;17.044;2023-03-22T09:59:17;99916.63;;;17.25;32.16
70690;BME280;58267;51.156;17.044;2023-03-22T10:01:44;99913.16;;;17.25;32.04
70690;BME280;58267;51.156;17.044;2023-03-22T10:04:20;99909.82;;;16.86;31.85
70690;BME280;58267;51.156;17.044;2023-03-22T10:06:32;99909.27;;;16.58;32.01
70690;BME280;58267;51.156;17.044;2023-03-22T10:09:04;99909.81;;;16.62;32.77
70690;BME280;58267;51.156;17.044;2023-03-22T10:11:30;99911.16;;;16.99;32.22
70690;BME280;58267;51.156;17.044;2023-03-22T10:13:55;99911.25;;;16.93;32.01
70690;BME280;58267;51.156;17.044;2023-03-22T10:16:21;99907.56;;;16.99;31.80
70690;BME280;58267;51.156;17.044;2023-03-22T10:18:42;99902.55;;;16.35;32.71
70690;BME280;58267;51.156;17.044;2023-03-22T10:21:07;99903.81;;;16.25;32.89
70690;BME280;58267;51.156;17.044;2023-03-22T10:23:33;99906.92;;;16.39;32.86
70690;BME280;58267;51.156;17.044;2023-03-22T10:25:56;99907.64;;;16.77;32.77
70690;BME280;58267;51.156;17.044;2023-03-22T10:28:24;99911.61;;;16.89;32.70
70690;BME280;58267;51.156;17.044;2023-03-22T10:30:51;99912.77;;;16.78;32.63
70690;BME280;58267;51.156;17.044;2023-03-22T10:33:15;99909.97;;;17.26;32.45
70690;BME280;58267;51.156;17.044;2023-03-22T10:35:38;99908.16;;;17.47;31.96
70690;BME280;58267;51.156;17.044;2023-03-22T10:38:06;99909.34;;;18.02;31.83
70690;BME280;58267;51.156;17.044;2023-03-22T10:40:31;99907.16;;;18.47;31.13
70690;BME280;58267;51.156;17.044;2023-03-22T10:42:56;99899.00;;;18.28;30.80
70690;BME280;58267;51.156;17.044;2023-03-22T10:45:20;99904.86;;;18.27;30.82
70690;BME280;58267;51.156;17.044;2023-03-22T10:47:49;99903.19;;;18.02;30.25
70690;BME280;58267;51.156;17.044;2023-03-22T10:50:16;99901.65;;;18.24;30.35
70690;BME280;58267;51.156;17.044;2023-03-22T10:52:41;99899.89;;;18.22;30.62
70690;BME280;58267;51.156;17.044;2023-03-22T10:55:02;99889.88;;;18.52;30.16
70690;BME280;58267;51.156;17.044;2023-03-22T10:57:26;99895.20;;;18.28;30.25
70690;BME280;58267;51.156;17.044;2023-03-22T10:59:55;99889.74;;;17.82;30.66
70690;BME280;58267;51.156;17.044;2023-03-22T11:02:19;99891.23;;;18.06;30.93
70690;BME280;58267;51.156;17.044;2023-03-22T11:04:47;99892.71;;;17.90;30.17
70690;BME280;58267;51.156;17.044;2023-03-22T11:07:14;99882.47;;;18.42;30.05
70690;BME280;58267;51.156;17.044;2023-03-22T11:09:34;99884.92;;;17.77;30.52
70690;BME280;58267;51.156;17.044;2023-03-22T11:12:00;99876.23;;;18.74;30.05
70690;BME280;58267;51.156;17.044;2023-03-22T11:14:28;99872.11;;;18.88;29.53
70690;BME280;58267;51.156;17.044;2023-03-22T11:16:54;99869.17;;;18.85;29.33
70690;BME280;58267;51.156;17.044;2023-03-22T11:19:21;99866.86;;;19.00;29.19
70690;BME280;58267;51.156;17.044;2023-03-22T11:21:42;99865.01;;;19.30;29.06
70690;BME280;58267;51.156;17.044;2023-03-22T11:24:12;99865.50;;;19.29;29.25
70690;BME280;58267;51.156;17.044;2023-03-22T11:26:35;99859.22;;;18.88;29.75
70690;BME280;58267;51.156;17.044;2023-03-22T11:29:09;99856.59;;;19.22;29.36
70690;BME280;58267;51.156;17.044;2023-03-22T11:31:25;99847.72;;;19.21;29.27
70690;BME280;58267;51.156;17.044;2023-03-22T11:33:55;99843.70;;;19.51;28.78
70690;BME280;58267;51.156;17.044;2023-03-22T11:36:17;99838.61;;;19.31;29.57
70690;BME280;58267;51.156;17.044;2023-03-22T11:38:41;99833.69;;;19.09;29.54
70690;BME280;58267;51.156;17.044;2023-03-22T11:41:11;99833.09;;;19.83;29.34
70690;BME280;58267;51.156;17.044;2023-03-22T11:43:34;99826.78;;;20.19;28.85
70690;BME280;58267;51.156;17.044;2023-03-22T11:45:58;99822.08;;;20.55;28.50
70690;BME280;58267;51.156;17.044;2023-03-22T11:48:25;99819.67;;;20.77;28.16
70690;BME280;58267;51.156;17.044;2023-03-22T11:50:53;99817.64;;;19.07;29.07
70690;BME280;58267;51.156;17.044;2023-03-22T11:53:18;99814.30;;;19.42;29.38
70690;BME280;58267;51.156;17.044;2023-03-22T11:55:42;99812.53;;;19.06;28.76
70690;BME280;58267;51.156;17.044;2023-03-22T11:58:06;99807.64;;;19.67;28.23
70690;BME280;58267;51.156;17.044;2023-03-22T12:00:34;99801.79;;;19.72;27.85
70690;BME280;58267;51.156;17.044;2023-03-22T12:03:00;99795.49;;;20.21;28.18
70690;BME280;58267;51.156;17.044;2023-03-22T12:05:26;99794.37;;;20.57;27.98
70690;BME280;58267;51.156;17.044;2023-03-22T12:07:53;99795.92;;;20.50;27.43
70690;BME280;58267;51.156;17.044;2023-03-22T12:10:20;99790.11;;;19.64;28.30
70690;BME280;58267;51.156;17.044;2023-03-22T12:12:44;99785.08;;;20.18;28.04
70690;BME280;58267;51.156;17.044;2023-03-22T12:15:14;99787.56;;;19.71;28.17
70690;BME280;58267;51.156;17.044;2023-03-22T12:17:35;99787.45;;;20.43;27.92
70690;BME280;58267;51.156;17.044;2023-03-22T12:20:02;99785.46;;;20.60;27.91
70690;BME280;58267;51.156;17.044;2023-03-22T12:22:27;99785.07;;;20.90;28.10
70690;BME280;58267;51.156;17.044;2023-03-22T12:24:48;99783.09;;;21.03;27.56
70690;BME280;58267;51.156;17.044;2023-03-22T12:27:16;99786.40;;;21.08;27.46
70690;BME280;58267;51.156;17.044;2023-03-22T12:29:45;99785.48;;;20.84;26.89
70690;BME280;58267;51.156;17.044;2023-03-22T12:32:10;99780.60;;;20.88;26.88
70690;BME280;58267;51.156;17.044;2023-03-22T12:34:36;99778.90;;;20.65;26.98
70690;BME280;58267;51.156;17.044;2023-03-22T12:36:56;99774.52;;;20.74;26.61
70690;BME280;58267;51.156;17.044;2023-03-22T12:39:25;99771.16;;;21.63;26.49
70690;BME280;58267;51.156;17.044;2023-03-22T12:41:49;99770.58;;;21.47;26.07
70690;BME280;58267;51.156;17.044;2023-03-22T12:44:16;99770.73;;;21.28;26.01
70690;BME280;58267;51.156;17.044;2023-03-22T12:46:44;99770.44;;;21.26;25.98